Time;durP1;ratioP1;P1;durP2;ratioP2;P2;SDS_P1;SDS_P2;PMS_P1;PMS_P2;Temp;Humidity;BMP_temperature;BMP_pressure;BME280_temperature;BME280_humidity;BME280_pressure;Samples;Min_cycle;Max_cycle;Signal;HPM_P1;HPM_P2
2021/12/30 00:00:05;;;;;;;;;;;;;;;;;;1011402;29;888;-32
2021/12/30 00:00:58;;;;;;;;;;;;;;;;;;1011532;29;697;-32
2021/12/30 00:01:29;;;;;;;;;;;;;;;;;;1011664;29;816;-33
2021/12/30 00:02:00;;;;;;;;;;;;;;;;;;1011705;29;860;-32
2021/12/30 00:02:31;;;;;;;;;;;;;;;;;;1011569;29;865;-32
2021/12/30 00:03:02;;;;;;;;;;;;;;;;;;1011727;29;818;-32
2021/12/30 00:03:33;;;;;;;;;;;;;;;;;;1011692;29;1002;-33
2021/12/30 00:04:03;;;;;;;;;;;;;;;;;;1011764;29;919;-32
2021/12/30 00:04:34;;;;;;;;;;;;;;;;;;1011495;29;970;-32
2021/12/30 00:05:05;;;;;;;;;;;;;;;;;;1011785;29;904;-32
2021/12/30 00:05:35;;;;;;;;;;;;;;;;;;1011460;29;848;-32
2021/12/30 00:06:06;;;;;;;;;;;;;;;;;;1011779;29;864;-32
2021/12/30 00:06:40;;;;;;;;;;;;;;;;;;1011399;29;1043;-32
2021/12/30 00:07:11;;;;;;;;;;;;;;;;;;1011651;29;900;-32
2021/12/30 00:07:42;;;;;;;;;;;;;;;;;;1011725;29;931;-32
2021/12/30 00:08:13;;;;;;;;;;;;;;;;;;1011502;29;875;-32
2021/12/30 00:08:43;;;;;;;;;;;;;;;;;;1011634;29;947;-32
2021/12/30 00:09:18;;;;;;;;;;;;;;;;;;1011648;29;1911;-32
2021/12/30 00:09:49;;;;;;;;;;;;;;;;;;1011772;29;970;-32
2021/12/30 00:10:19;;;;;;;;;;;;;;;;;;1011597;29;932;-32
2021/12/30 00:10:50;;;;;;;;;;;;;;;;;;1011715;29;868;-32
2021/12/30 00:11:20;;;;;;;;;;;;;;;;;;1011689;29;868;-32
2021/12/30 00:11:51;;;;;;;;;;;;;;;;;;1011693;29;990;-32
2021/12/30 00:12:21;;;;;;;;;;;;;;;;;;1011507;29;1012;-32
2021/12/30 00:12:53;;;;;;;;;;;;;;;;;;1011712;29;872;-32
2021/12/30 00:13:23;;;;;;;;;;;;;;;;;;1011577;29;932;-32
2021/12/30 00:13:55;;;;;;;;;;;;;;;;;;1011647;29;1129;-32
2021/12/30 00:14:25;;;;;;;;;;;;;;;;;;1011730;29;831;-32
2021/12/30 00:14:55;;;;;;;;;;;;;;;;;;1011642;29;864;-32
2021/12/30 00:15:26;;;;;;;;;;;;;;;;;;1011620;29;1002;-32
2021/12/30 00:15:57;;;;;;;;;;;;;;;;;;1011528;29;891;-32
2021/12/30 00:16:27;;;;;;;;;;;;;;;;;;1011641;29;982;-31
2021/12/30 00:16:57;;;;;;;;;;;;;;;;;;1011780;29;824;-32
2021/12/30 00:17:28;;;;;;;;;;;;;;;;;;1011599;29;979;-32
2021/12/30 00:17:58;;;;;;;;;;;;;;;;;;1011723;29;903;-32
2021/12/30 00:18:28;;;;;;;;;;;;;;;;;;1011681;29;908;-32
2021/12/30 00:18:59;;;;;;;;;;;;;;;;;;1011680;29;819;-32
2021/12/30 00:19:29;;;;;;;;;;;;;;;;;;1011732;29;939;-32
2021/12/30 00:20:01;;;;;;;;;;;;;;;;;;1011669;29;1239;-32
2021/12/30 00:20:31;;;;;;;;;;;;;;;;;;1011517;29;876;-32
2021/12/30 00:21:02;;;;;;;;;;;;;;;;;;1011832;29;804;-32
2021/12/30 00:21:32;;;;;;;;;;;;;;;;;;1011335;29;1069;-32
2021/12/30 00:22:03;;;;;;;;;;;;;;;;;;1011819;29;888;-32
2021/12/30 00:22:34;;;;;;;;;;;;;;;;;;1011567;29;966;-32
2021/12/30 00:23:07;;;;;;;;;;;;;;;;;;1011750;29;860;-32
2021/12/30 00:23:37;;;;;;;;;;;;;;;;;;1011533;29;989;-32
2021/12/30 00:24:09;;;;;;;;;;;;;;;;;;1011652;29;924;-33
2021/12/30 00:24:39;;;;;;;;;;;;;;;;;;1011569;29;822;-32
2021/12/30 00:25:11;;;;;;;;;;;;;;;;;;1011663;29;980;-32
2021/12/30 00:25:42;;;;;;;;;;;;;;;;;;1011429;29;808;-32
2021/12/30 00:26:12;;;;;;;;;;;;;;;;;;1011696;29;1173;-32
2021/12/30 00:26:43;;;;;;;;;;;;;;;;;;1011303;29;1129;-32
2021/12/30 00:27:13;;;;;;;;;;;;;;;;;;1007475;29;856;-32
2021/12/30 00:27:44;;;;;;;;;;;;;;;;;;1011116;29;1257;-32
2021/12/30 00:28:19;;;;;;;;;;;;;;;;;;1011339;29;872;-32
2021/12/30 00:28:50;;;;;;;;;;;;;;;;;;1011222;29;1911;-32
2021/12/30 00:29:20;;;;;;;;;;;;;;;;;;1007418;29;793;-32
2021/12/30 00:29:51;;;;;;;;;;;;;;;;;;1007291;29;1121;-32
2021/12/30 00:30:21;;;;;;;;;;;;;;;;;;1007610;29;900;-31
2021/12/30 00:30:54;;;;;;;;;;;;;;;;;;1007774;29;883;-32
2021/12/30 00:31:24;;;;;;;;;;;;;;;;;;1012630;29;982;-32
2021/12/30 00:31:54;;;;;;;;;;;;;;;;;;1012315;29;907;-32
2021/12/30 00:32:25;;;;;;;;;;;;;;;;;;1012460;29;828;-32
2021/12/30 00:32:55;;;;;;;;;;;;;;;;;;1012455;29;805;-32
2021/12/30 00:33:27;;;;;;;;;;;;;;;;;;1012445;29;797;-32
2021/12/30 00:33:57;;;;;;;;;;;;;;;;;;1012360;29;832;-31
2021/12/30 00:34:28;;;;;;;;;;;;;;;;;;1012576;29;951;-31
2021/12/30 00:34:58;;;;;;;;;;;;;;;;;;1012418;29;964;-32
2021/12/30 00:35:29;;;;;;;;;;;;;;;;;;1012405;29;892;-32
2021/12/30 00:36:00;;;;;;;;;;;;;;;;;;1012271;29;832;-32
2021/12/30 00:36:30;;;;;;;;;;;;;;;;;;1012416;29;788;-32
2021/12/30 00:37:00;;;;;;;;;;;;;;;;;;1012453;29;883;-32
2021/12/30 00:37:31;;;;;;;;;;;;;;;;;;1012287;29;824;-32
2021/12/30 00:38:03;;;;;;;;;;;;;;;;;;1012440;29;975;-32
2021/12/30 00:38:35;;;;;;;;;;;;;;;;;;1012338;29;951;-32
2021/12/30 00:39:05;;;;;;;;;;;;;;;;;;1012586;29;824;-32
2021/12/30 00:39:35;;;;;;;;;;;;;;;;;;1012437;29;911;-32
2021/12/30 00:40:06;;;;;;;;;;;;;;;;;;1012387;29;859;-32
2021/12/30 00:40:37;;;;;;;;;;;;;;;;;;1012234;29;904;-32
2021/12/30 00:41:08;;;;;;;;;;;;;;;;;;1012436;29;883;-32
2021/12/30 00:41:38;;;;;;;;;;;;;;;;;;1012334;29;879;-32
2021/12/30 00:42:08;;;;;;;;;;;;;;;;;;1012456;29;808;-33
2021/12/30 00:42:39;;;;;;;;;;;;;;;;;;1012226;29;816;-32
2021/12/30 00:43:09;;;;;;;;;;;;;;;;;;1012471;29;1399;-32
2021/12/30 00:43:40;;;;;;;;;;;;;;;;;;1012312;29;915;-32
2021/12/30 00:44:10;;;;;;;;;;;;;;;;;;1012308;29;935;-32
2021/12/30 00:44:41;;;;;;;;;;;;;;;;;;1012385;29;895;-32
2021/12/30 00:45:11;;;;;;;;;;;;;;;;;;1012275;29;819;-32
2021/12/30 00:45:42;;;;;;;;;;;;;;;;;;1012264;29;1070;-32
2021/12/30 00:46:12;;;;;;;;;;;;;;;;;;1012438;29;839;-32
2021/12/30 00:46:42;;;;;;;;;;;;;;;;;;1008036;29;878;-31
2021/12/30 00:47:13;;;;;;;;;;;;;;;;;;1008243;29;812;-32
2021/12/30 00:47:43;;;;;;;;;;;;;;;;;;1008139;29;878;-32
2021/12/30 00:48:13;;;;;;;;;;;;;;;;;;1008096;29;923;-32
2021/12/30 00:48:44;;;;;;;;;;;;;;;;;;1012367;29;951;-32
2021/12/30 00:49:14;;;;;;;;;;;;;;;;;;1012178;29;1919;-32
2021/12/30 00:49:45;;;;;;;;;;;;;;;;;;1012490;29;914;-32
2021/12/30 00:50:15;;;;;;;;;;;;;;;;;;1012376;29;959;-32
2021/12/30 00:50:46;;;;;;;;;;;;;;;;;;1012342;29;1021;-32
2021/12/30 00:51:16;;;;;;;;;;;;;;;;;;1012404;29;831;-32
2021/12/30 00:51:47;;;;;;;;;;;;;;;;;;1012341;29;900;-32
2021/12/30 00:52:17;;;;;;;;;;;;;;;;;;1012427;29;824;-32
2021/12/30 00:52:47;;;;;;;;;;;;;;;;;;1012321;29;1203;-32
2021/12/30 00:53:18;;;;;;;;;;;;;;;;;;1012277;29;978;-32
2021/12/30 00:53:48;;;;;;;;;;;;;;;;;;1012489;29;792;-32
2021/12/30 00:54:19;;;;;;;;;;;;;;;;;;1012216;29;855;-32
2021/12/30 00:54:49;;;;;;;;;;;;;;;;;;1012379;29;883;-32
2021/12/30 00:55:20;;;;;;;;;;;;;;;;;;1012399;29;966;-32
2021/12/30 00:55:50;;;;;;;;;;;;;;;;;;1012100;29;990;-32
2021/12/30 00:56:21;;;;;;;;;;;;;;;;;;1012425;29;899;-32
2021/12/30 00:56:51;;;;;;;;;;;;;;;;;;1011997;29;994;-32
2021/12/30 00:57:21;;;;;;;;;;;;;;;;;;1011909;29;1022;-32
2021/12/30 00:57:52;;;;;;;;;;;;;;;;;;1012067;29;946;-32
2021/12/30 00:58:22;;;;;;;;;;;;;;;;;;1011893;29;967;-32
2021/12/30 00:58:53;;;;;;;;;;;;;;;;;;1012381;29;895;-32
2021/12/30 00:59:23;;;;;;;;;;;;;;;;;;1012335;29;796;-32
2021/12/30 00:59:53;;;;;;;;;;;;;;;;;;1012260;29;856;-32
2021/12/30 01:00:24;;;;;;;;;;;;;;;;;;1012444;29;895;-32
2021/12/30 01:00:54;;;;;;;;;;;;;;;;;;1012206;29;975;-32
2021/12/30 01:01:25;;;;;;;;;;;;;;;;;;1012277;29;883;-32
2021/12/30 01:01:55;;;;;;;;;;;;;;;;;;1012337;29;958;-32
2021/12/30 01:02:26;;;;;;;;;;;;;;;;;;1007964;29;1108;-32
2021/12/30 01:02:56;;;;;;;;;;;;;;;;;;1008099;29;935;-32
2021/12/30 01:03:28;;;;;;;;;;;;;;;;;;1008084;29;904;-32
2021/12/30 01:03:58;;;;;;;;;;;;;;;;;;1008281;29;880;-32
2021/12/30 01:04:28;;;;;;;;;;;;;;;;;;1012343;29;931;-32
2021/12/30 01:04:59;;;;;;;;;;;;;;;;;;1012238;29;954;-32
2021/12/30 01:05:29;;;;;;;;;;;;;;;;;;1012208;29;959;-32
2021/12/30 01:05:59;;;;;;;;;;;;;;;;;;1011988;29;819;-32
2021/12/30 01:06:30;;;;;;;;;;;;;;;;;;1011664;29;1208;-32
2021/12/30 01:07:01;;;;;;;;;;;;;;;;;;1012136;29;796;-32
2021/12/30 01:07:31;;;;;;;;;;;;;;;;;;1011863;29;883;-32
2021/12/30 01:08:03;;;;;;;;;;;;;;;;;;1012420;29;809;-32
2021/12/30 01:08:33;;;;;;;;;;;;;;;;;;1012267;29;954;-32
2021/12/30 01:09:04;;;;;;;;;;;;;;;;;;1011866;29;1982;-31
2021/12/30 01:09:35;;;;;;;;;;;;;;;;;;1011880;29;919;-32
2021/12/30 01:10:07;;;;;;;;;;;;;;;;;;1012013;29;875;-32
2021/12/30 01:10:38;;;;;;;;;;;;;;;;;;1012009;29;931;-32
2021/12/30 01:11:09;;;;;;;;;;;;;;;;;;1012014;29;888;-32
2021/12/30 01:11:39;;;;;;;;;;;;;;;;;;1011846;29;1010;-31
2021/12/30 01:12:10;;;;;;;;;;;;;;;;;;1012133;29;1007;-32
2021/12/30 01:12:41;;;;;;;;;;;;;;;;;;1012304;29;959;-32
2021/12/30 01:13:17;;;;;;;;;;;;;;;;;;1012255;29;944;-32
2021/12/30 01:13:55;;;;;;;;;;;;;;;;;;1012299;29;828;-32
2021/12/30 01:14:28;;;;;;;;;;;;;;;;;;1008467;29;831;-32
2021/12/30 01:15:06;;;;;;;;;;;;;;;;;;1008410;29;944;-33
2021/12/30 01:16:44;;;;;;;;;;;;;;;;;;1003884;29;1104;-32
2021/12/30 01:17:39;;;;;;;;;;;;;;;;;;1003936;29;971;-32
2021/12/30 01:18:36;;;;;;;;;;;;;;;;;;1008204;29;943;-32
2021/12/30 01:20:16;;;;;;;;;;;;;;;;;;1003840;29;1263;-32
2021/12/30 01:20:47;;;;;;;;;;;;;;;;;;1003704;29;1264;-32
2021/12/30 01:21:17;;;;;;;;;;;;;;;;;;1003913;29;744;-32
2021/12/30 01:21:49;;;;;;;;;;;;;;;;;;1000125;29;920;-32
2021/12/30 01:22:24;;;;;;;;;;;;;;;;;;999956;29;956;-32
2021/12/30 01:22:54;;;;;;;;;;;;;;;;;;1000083;29;1071;-32
2021/12/30 01:23:25;;;;;;;;;;;;;;;;;;1000641;29;1030;-32
2021/12/30 01:23:56;;;;;;;;;;;;;;;;;;1003818;29;927;-32
2021/12/30 01:24:26;;;;;;;;;;;;;;;;;;1003916;29;663;-32
2021/12/30 01:24:57;;;;;;;;;;;;;;;;;;1003760;29;893;-32
2021/12/30 01:25:27;;;;;;;;;;;;;;;;;;1003973;29;936;-33
2021/12/30 01:25:58;;;;;;;;;;;;;;;;;;1003592;29;996;-32
2021/12/30 01:26:28;;;;;;;;;;;;;;;;;;1008371;29;903;-32
2021/12/30 01:26:58;;;;;;;;;;;;;;;;;;1008357;29;888;-32
2021/12/30 01:27:29;;;;;;;;;;;;;;;;;;1008357;29;832;-32
2021/12/30 01:27:59;;;;;;;;;;;;;;;;;;1008293;29;927;-33
2021/12/30 01:28:30;;;;;;;;;;;;;;;;;;1008214;29;813;-32
2021/12/30 01:29:00;;;;;;;;;;;;;;;;;;1008323;29;1907;-32
2021/12/30 01:29:31;;;;;;;;;;;;;;;;;;1008416;29;825;-32
2021/12/30 01:30:01;;;;;;;;;;;;;;;;;;1008325;29;856;-32
2021/12/30 01:30:31;;;;;;;;;;;;;;;;;;1008310;29;899;-32
2021/12/30 01:31:03;;;;;;;;;;;;;;;;;;1008357;29;844;-32
2021/12/30 01:31:33;;;;;;;;;;;;;;;;;;1008335;29;903;-32
2021/12/30 01:32:04;;;;;;;;;;;;;;;;;;1008427;29;954;-32
2021/12/30 01:32:34;;;;;;;;;;;;;;;;;;1008215;29;927;-32
2021/12/30 01:33:04;;;;;;;;;;;;;;;;;;1008354;29;829;-32
2021/12/30 01:33:35;;;;;;;;;;;;;;;;;;1008363;29;916;-33
2021/12/30 01:34:06;;;;;;;;;;;;;;;;;;1008226;29;943;-32
2021/12/30 01:34:36;;;;;;;;;;;;;;;;;;1008356;29;1029;-32
2021/12/30 01:35:09;;;;;;;;;;;;;;;;;;1008348;29;935;-32
2021/12/30 01:35:39;;;;;;;;;;;;;;;;;;1008287;29;950;-32
2021/12/30 01:36:10;;;;;;;;;;;;;;;;;;1008272;29;915;-32
2021/12/30 01:36:40;;;;;;;;;;;;;;;;;;1008268;29;879;-32
2021/12/30 01:37:13;;;;;;;;;;;;;;;;;;1008262;29;825;-32
2021/12/30 01:37:43;;;;;;;;;;;;;;;;;;1008308;29;939;-32
2021/12/30 01:38:16;;;;;;;;;;;;;;;;;;1008262;29;812;-32
2021/12/30 01:38:47;;;;;;;;;;;;;;;;;;1008426;29;891;-32
2021/12/30 01:39:19;;;;;;;;;;;;;;;;;;1008090;29;939;-32
2021/12/30 01:39:50;;;;;;;;;;;;;;;;;;1008337;29;979;-33
2021/12/30 01:40:21;;;;;;;;;;;;;;;;;;1008385;29;817;-32
2021/12/30 01:40:53;;;;;;;;;;;;;;;;;;1008206;29;923;-32
2021/12/30 01:41:23;;;;;;;;;;;;;;;;;;1008465;29;802;-31
2021/12/30 01:41:54;;;;;;;;;;;;;;;;;;1007865;29;879;-32
2021/12/30 01:42:25;;;;;;;;;;;;;;;;;;1008482;29;785;-32
2021/12/30 01:42:55;;;;;;;;;;;;;;;;;;1008224;29;967;-32
2021/12/30 01:43:25;;;;;;;;;;;;;;;;;;1008314;29;942;-32
2021/12/30 01:43:56;;;;;;;;;;;;;;;;;;1007915;29;1027;-32
2021/12/30 01:44:28;;;;;;;;;;;;;;;;;;1004120;29;955;-32
2021/12/30 01:44:58;;;;;;;;;;;;;;;;;;1004134;29;825;-33
2021/12/30 01:45:28;;;;;;;;;;;;;;;;;;1004136;29;951;-32
2021/12/30 01:45:59;;;;;;;;;;;;;;;;;;1004094;29;939;-32
2021/12/30 01:46:40;;;;;;;;;;;;;;;;;;1008355;29;860;-33
2021/12/30 01:47:11;;;;;;;;;;;;;;;;;;1008156;29;801;-32
2021/12/30 01:47:49;;;;;;;;;;;;;;;;;;1008436;29;889;-32
2021/12/30 01:48:21;;;;;;;;;;;;;;;;;;1003975;29;907;-33
2021/12/30 01:48:51;;;;;;;;;;;;;;;;;;1004121;29;782;-32
2021/12/30 01:49:21;;;;;;;;;;;;;;;;;;1004133;29;1088;-32
2021/12/30 01:49:53;;;;;;;;;;;;;;;;;;1004151;29;1113;-32
2021/12/30 01:50:24;;;;;;;;;;;;;;;;;;1008043;29;872;-32
2021/12/30 01:50:55;;;;;;;;;;;;;;;;;;1007939;29;959;-32
2021/12/30 01:51:25;;;;;;;;;;;;;;;;;;1008322;29;955;-32
2021/12/30 01:51:56;;;;;;;;;;;;;;;;;;1008213;29;959;-32
2021/12/30 01:52:26;;;;;;;;;;;;;;;;;;1008249;29;1313;-33
2021/12/30 01:52:58;;;;;;;;;;;;;;;;;;1008298;29;847;-33
2021/12/30 01:53:29;;;;;;;;;;;;;;;;;;1008360;29;888;-32
2021/12/30 01:53:59;;;;;;;;;;;;;;;;;;1008093;29;987;-33
2021/12/30 01:54:29;;;;;;;;;;;;;;;;;;1004141;29;991;-32
2021/12/30 01:55:00;;;;;;;;;;;;;;;;;;1003961;29;955;-32
2021/12/30 01:55:31;;;;;;;;;;;;;;;;;;1004009;29;801;-33
2021/12/30 01:56:03;;;;;;;;;;;;;;;;;;1004220;29;927;-32
2021/12/30 01:56:33;;;;;;;;;;;;;;;;;;1008231;29;938;-31
2021/12/30 01:57:05;;;;;;;;;;;;;;;;;;1008309;29;797;-32
2021/12/30 01:57:35;;;;;;;;;;;;;;;;;;1008255;29;1654;-32
2021/12/30 01:58:06;;;;;;;;;;;;;;;;;;1008173;29;899;-32
2021/12/30 01:58:36;;;;;;;;;;;;;;;;;;1004077;29;1166;-32
2021/12/30 01:59:07;;;;;;;;;;;;;;;;;;1003992;29;951;-32
2021/12/30 01:59:37;;;;;;;;;;;;;;;;;;1004174;29;773;-32
2021/12/30 02:00:11;;;;;;;;;;;;;;;;;;1004022;29;939;-32
2021/12/30 02:00:44;;;;;;;;;;;;;;;;;;1008345;29;635;-32
2021/12/30 02:01:14;;;;;;;;;;;;;;;;;;1004011;29;908;-33
2021/12/30 02:01:45;;;;;;;;;;;;;;;;;;1004015;29;908;-32
2021/12/30 02:02:15;;;;;;;;;;;;;;;;;;1004036;29;967;-32
2021/12/30 02:02:49;;;;;;;;;;;;;;;;;;1004626;29;927;-32
2021/12/30 02:03:20;;;;;;;;;;;;;;;;;;1008191;29;971;-32
2021/12/30 02:03:51;;;;;;;;;;;;;;;;;;1008310;29;908;-32
2021/12/30 02:04:21;;;;;;;;;;;;;;;;;;1008084;29;998;-32
2021/12/30 02:04:52;;;;;;;;;;;;;;;;;;1008291;29;895;-32
2021/12/30 02:05:22;;;;;;;;;;;;;;;;;;1008142;29;951;-32
2021/12/30 02:05:53;;;;;;;;;;;;;;;;;;1008226;29;912;-32
2021/12/30 02:06:23;;;;;;;;;;;;;;;;;;1007886;29;1036;-32
2021/12/30 02:06:55;;;;;;;;;;;;;;;;;;1008262;29;955;-32
2021/12/30 02:07:25;;;;;;;;;;;;;;;;;;1008152;29;966;-31
2021/12/30 02:07:56;;;;;;;;;;;;;;;;;;1008274;29;943;-32
2021/12/30 02:08:26;;;;;;;;;;;;;;;;;;1007984;29;892;-32
2021/12/30 02:08:56;;;;;;;;;;;;;;;;;;1008337;29;1907;-32
2021/12/30 02:09:29;;;;;;;;;;;;;;;;;;1003817;29;944;-32
2021/12/30 02:10:01;;;;;;;;;;;;;;;;;;1004246;29;860;-32
2021/12/30 02:10:32;;;;;;;;;;;;;;;;;;1003923;29;821;-32
2021/12/30 02:11:02;;;;;;;;;;;;;;;;;;1004704;29;789;-32
2021/12/30 02:11:32;;;;;;;;;;;;;;;;;;1008190;29;608;-32
2021/12/30 02:12:04;;;;;;;;;;;;;;;;;;1008193;29;876;-32
2021/12/30 02:12:36;;;;;;;;;;;;;;;;;;1008090;29;959;-32
2021/12/30 02:13:09;;;;;;;;;;;;;;;;;;1008255;29;832;-32
2021/12/30 02:13:40;;;;;;;;;;;;;;;;;;1008244;29;849;-32
2021/12/30 02:14:11;;;;;;;;;;;;;;;;;;1010897;29;1117;-32
2021/12/30 02:14:41;;;;;;;;;;;;;;;;;;1012043;29;879;-32
2021/12/30 02:15:14;;;;;;;;;;;;;;;;;;1012086;29;840;-32
2021/12/30 02:15:44;;;;;;;;;;;;;;;;;;1011933;29;1058;-32
2021/12/30 02:16:16;;;;;;;;;;;;;;;;;;1012048;29;927;-32
2021/12/30 02:16:47;;;;;;;;;;;;;;;;;;1012020;29;765;-32
2021/12/30 02:17:18;;;;;;;;;;;;;;;;;;1012121;29;823;-32
2021/12/30 02:17:50;;;;;;;;;;;;;;;;;;1012000;29;839;-32
2021/12/30 02:18:22;;;;;;;;;;;;;;;;;;1012090;29;867;-32
2021/12/30 02:18:53;;;;;;;;;;;;;;;;;;1012056;29;904;-32
2021/12/30 02:19:23;;;;;;;;;;;;;;;;;;1011994;29;951;-32
2021/12/30 02:19:57;;;;;;;;;;;;;;;;;;1012198;29;918;-32
2021/12/30 02:20:45;;;;;;;;;;;;;;;;;;1011931;29;891;-32
2021/12/30 02:21:16;;;;;;;;;;;;;;;;;;1011948;29;1238;-32
2021/12/30 02:21:46;;;;;;;;;;;;;;;;;;1011840;29;971;-32
2021/12/30 02:22:16;;;;;;;;;;;;;;;;;;1012161;29;915;-32
2021/12/30 02:22:47;;;;;;;;;;;;;;;;;;1011919;29;920;-32
2021/12/30 02:23:23;;;;;;;;;;;;;;;;;;1012148;29;825;-32
2021/12/30 02:23:54;;;;;;;;;;;;;;;;;;1012082;29;935;-32
2021/12/30 02:24:24;;;;;;;;;;;;;;;;;;1011889;29;911;-32
2021/12/30 02:24:56;;;;;;;;;;;;;;;;;;1012202;29;833;-32
2021/12/30 02:25:26;;;;;;;;;;;;;;;;;;1011778;29;970;-32
2021/12/30 02:25:58;;;;;;;;;;;;;;;;;;1011693;29;883;-32
2021/12/30 02:26:29;;;;;;;;;;;;;;;;;;1011609;29;975;-32
2021/12/30 02:26:59;;;;;;;;;;;;;;;;;;1011744;29;907;-32
2021/12/30 02:27:30;;;;;;;;;;;;;;;;;;1011552;29;999;-32
2021/12/30 02:28:04;;;;;;;;;;;;;;;;;;1012002;29;840;-32
2021/12/30 02:28:36;;;;;;;;;;;;;;;;;;1012108;29;919;-32
2021/12/30 02:29:06;;;;;;;;;;;;;;;;;;1011935;29;1919;-32
2021/12/30 02:29:36;;;;;;;;;;;;;;;;;;1011920;29;959;-32
2021/12/30 02:30:07;;;;;;;;;;;;;;;;;;1012058;29;876;-32
2021/12/30 02:30:38;;;;;;;;;;;;;;;;;;1011604;29;947;-32
2021/12/30 02:31:10;;;;;;;;;;;;;;;;;;1011722;29;844;-32
2021/12/30 02:31:41;;;;;;;;;;;;;;;;;;1011588;29;986;-32
2021/12/30 02:32:11;;;;;;;;;;;;;;;;;;1011679;29;800;-32
2021/12/30 02:32:42;;;;;;;;;;;;;;;;;;1012028;29;776;-32
2021/12/30 02:33:12;;;;;;;;;;;;;;;;;;1012042;29;926;-32
2021/12/30 02:33:43;;;;;;;;;;;;;;;;;;1011853;29;937;-32
2021/12/30 02:34:16;;;;;;;;;;;;;;;;;;1012138;29;1018;-32
2021/12/30 02:34:46;;;;;;;;;;;;;;;;;;1011827;29;943;-32
2021/12/30 02:35:17;;;;;;;;;;;;;;;;;;1011822;29;808;-32
2021/12/30 02:35:47;;;;;;;;;;;;;;;;;;1007499;29;1038;-32
2021/12/30 02:36:21;;;;;;;;;;;;;;;;;;1007890;29;895;-32
2021/12/30 02:36:51;;;;;;;;;;;;;;;;;;1007754;29;943;-32
2021/12/30 02:37:22;;;;;;;;;;;;;;;;;;1008256;29;882;-32
2021/12/30 02:37:52;;;;;;;;;;;;;;;;;;1011935;29;864;-32
2021/12/30 02:38:24;;;;;;;;;;;;;;;;;;1011950;29;895;-32
2021/12/30 02:38:54;;;;;;;;;;;;;;;;;;1011939;29;804;-32
2021/12/30 02:39:25;;;;;;;;;;;;;;;;;;1012058;29;895;-32
2021/12/30 02:39:55;;;;;;;;;;;;;;;;;;1011826;29;946;-32
2021/12/30 02:40:27;;;;;;;;;;;;;;;;;;1012090;29;967;-32
2021/12/30 02:40:59;;;;;;;;;;;;;;;;;;1011929;29;1136;-32
2021/12/30 02:41:33;;;;;;;;;;;;;;;;;;1011910;29;999;-32
2021/12/30 02:42:03;;;;;;;;;;;;;;;;;;1011867;29;892;-32
2021/12/30 02:42:34;;;;;;;;;;;;;;;;;;1011943;29;919;-32
2021/12/30 02:43:06;;;;;;;;;;;;;;;;;;1011959;29;836;-32
2021/12/30 02:43:36;;;;;;;;;;;;;;;;;;1011987;29;950;-32
2021/12/30 02:44:08;;;;;;;;;;;;;;;;;;1011800;29;939;-32
2021/12/30 02:44:38;;;;;;;;;;;;;;;;;;1011981;29;2647;-32
2021/12/30 02:45:09;;;;;;;;;;;;;;;;;;1011453;29;947;-32
2021/12/30 02:45:40;;;;;;;;;;;;;;;;;;1011558;29;975;-32
2021/12/30 02:46:10;;;;;;;;;;;;;;;;;;1011516;29;920;-32
2021/12/30 02:46:41;;;;;;;;;;;;;;;;;;1011568;29;859;-32
2021/12/30 02:47:11;;;;;;;;;;;;;;;;;;1011951;29;894;-32
2021/12/30 02:47:42;;;;;;;;;;;;;;;;;;1011897;29;847;-32
2021/12/30 02:48:17;;;;;;;;;;;;;;;;;;1011889;29;898;-32
2021/12/30 02:48:47;;;;;;;;;;;;;;;;;;1011889;29;1001;-32
2021/12/30 02:49:18;;;;;;;;;;;;;;;;;;1011822;29;1976;-32
2021/12/30 02:49:48;;;;;;;;;;;;;;;;;;1011890;29;840;-32
2021/12/30 02:50:18;;;;;;;;;;;;;;;;;;1011991;29;860;-32
2021/12/30 02:50:50;;;;;;;;;;;;;;;;;;1011897;29;824;-32
2021/12/30 02:51:21;;;;;;;;;;;;;;;;;;1011997;29;958;-32
2021/12/30 02:51:51;;;;;;;;;;;;;;;;;;1011728;29;903;-32
2021/12/30 02:52:21;;;;;;;;;;;;;;;;;;1011985;29;1231;-32
2021/12/30 02:52:52;;;;;;;;;;;;;;;;;;1011819;29;911;-32
2021/12/30 02:53:22;;;;;;;;;;;;;;;;;;1011514;29;986;-32
2021/12/30 02:53:54;;;;;;;;;;;;;;;;;;1011675;29;997;-32
2021/12/30 02:54:24;;;;;;;;;;;;;;;;;;1011524;29;967;-32
2021/12/30 02:54:54;;;;;;;;;;;;;;;;;;1011527;29;935;-32
2021/12/30 02:55:25;;;;;;;;;;;;;;;;;;1011683;29;966;-32
2021/12/30 02:55:55;;;;;;;;;;;;;;;;;;1011318;29;1037;-32
2021/12/30 02:56:26;;;;;;;;;;;;;;;;;;1011908;29;868;-32
2021/12/30 02:56:56;;;;;;;;;;;;;;;;;;1007516;29;1512;-32
2021/12/30 02:57:27;;;;;;;;;;;;;;;;;;1007692;29;907;-32
2021/12/30 02:57:57;;;;;;;;;;;;;;;;;;1007676;29;1009;-32
2021/12/30 02:58:28;;;;;;;;;;;;;;;;;;1007617;29;982;-32
2021/12/30 02:58:58;;;;;;;;;;;;;;;;;;1011869;29;935;-32
2021/12/30 02:59:29;;;;;;;;;;;;;;;;;;1011789;29;1166;-32
2021/12/30 02:59:59;;;;;;;;;;;;;;;;;;1011884;29;958;-32
2021/12/30 03:00:30;;;;;;;;;;;;;;;;;;1011931;29;947;-32
2021/12/30 03:01:06;;;;;;;;;;;;;;;;;;1011837;29;1081;-32
2021/12/30 03:01:36;;;;;;;;;;;;;;;;;;1011971;29;939;-32
2021/12/30 03:02:06;;;;;;;;;;;;;;;;;;1011549;29;927;-32
2021/12/30 03:02:38;;;;;;;;;;;;;;;;;;1007565;29;944;-32
2021/12/30 03:03:15;;;;;;;;;;;;;;;;;;1007708;29;892;-32
2021/12/30 03:03:46;;;;;;;;;;;;;;;;;;1007545;29;978;-32
2021/12/30 03:04:16;;;;;;;;;;;;;;;;;;1008856;29;1038;-32
2021/12/30 03:04:46;;;;;;;;;;;;;;;;;;1011843;29;998;-32
2021/12/30 03:05:18;;;;;;;;;;;;;;;;;;1011852;29;890;-32
2021/12/30 03:05:49;;;;;;;;;;;;;;;;;;1011771;29;844;-32
2021/12/30 03:06:19;;;;;;;;;;;;;;;;;;1011673;29;1098;-32
2021/12/30 03:06:50;;;;;;;;;;;;;;;;;;1011435;29;963;-32
2021/12/30 03:07:20;;;;;;;;;;;;;;;;;;1011589;29;812;-32
2021/12/30 03:07:51;;;;;;;;;;;;;;;;;;1011385;29;939;-32
2021/12/30 03:08:22;;;;;;;;;;;;;;;;;;1011513;29;844;-32
2021/12/30 03:08:53;;;;;;;;;;;;;;;;;;1011861;29;884;-31
2021/12/30 03:09:23;;;;;;;;;;;;;;;;;;1011622;29;1996;-32
2021/12/30 03:09:54;;;;;;;;;;;;;;;;;;1011972;29;899;-32
2021/12/30 03:10:25;;;;;;;;;;;;;;;;;;1011706;29;966;-32
2021/12/30 03:10:56;;;;;;;;;;;;;;;;;;1011916;29;1002;-32
2021/12/30 03:11:26;;;;;;;;;;;;;;;;;;1011804;29;978;-32
2021/12/30 03:11:57;;;;;;;;;;;;;;;;;;1011902;29;784;-32
2021/12/30 03:12:27;;;;;;;;;;;;;;;;;;1011785;29;879;-32
2021/12/30 03:13:04;;;;;;;;;;;;;;;;;;1011900;29;943;-32
2021/12/30 03:13:36;;;;;;;;;;;;;;;;;;1011911;29;880;-32
2021/12/30 03:14:06;;;;;;;;;;;;;;;;;;1011653;29;1136;-32
2021/12/30 03:14:40;;;;;;;;;;;;;;;;;;1011889;29;1030;-32
2021/12/30 03:15:14;;;;;;;;;;;;;;;;;;1011879;29;955;-32
2021/12/30 03:15:46;;;;;;;;;;;;;;;;;;1011515;29;907;-32
2021/12/30 03:16:21;;;;;;;;;;;;;;;;;;1011953;29;927;-32
2021/12/30 03:16:52;;;;;;;;;;;;;;;;;;1011691;29;1390;-32
2021/12/30 03:17:22;;;;;;;;;;;;;;;;;;1011905;29;836;-32
2021/12/30 03:17:53;;;;;;;;;;;;;;;;;;1011856;29;797;-31
2021/12/30 03:18:23;;;;;;;;;;;;;;;;;;1011674;29;962;-32
2021/12/30 03:18:54;;;;;;;;;;;;;;;;;;1011942;29;899;-32
2021/12/30 03:19:24;;;;;;;;;;;;;;;;;;1011879;29;946;-32
2021/12/30 03:19:55;;;;;;;;;;;;;;;;;;1011808;29;907;-32
2021/12/30 03:20:26;;;;;;;;;;;;;;;;;;1011454;29;931;-32
2021/12/30 03:20:57;;;;;;;;;;;;;;;;;;1010450;29;1282;-32
2021/12/30 03:21:28;;;;;;;;;;;;;;;;;;1007540;29;889;-32
2021/12/30 03:21:58;;;;;;;;;;;;;;;;;;1007756;29;986;-32
2021/12/30 03:22:28;;;;;;;;;;;;;;;;;;1011709;29;955;-32
2021/12/30 03:22:59;;;;;;;;;;;;;;;;;;1011897;29;900;-32
2021/12/30 03:23:29;;;;;;;;;;;;;;;;;;1011733;29;1418;-32
2021/12/30 03:24:00;;;;;;;;;;;;;;;;;;1011823;29;950;-32
2021/12/30 03:24:31;;;;;;;;;;;;;;;;;;1011790;29;816;-31
2021/12/30 03:25:01;;;;;;;;;;;;;;;;;;1011697;29;923;-32
2021/12/30 03:25:32;;;;;;;;;;;;;;;;;;1011327;29;1175;-32
2021/12/30 03:26:03;;;;;;;;;;;;;;;;;;1011336;29;962;-32
2021/12/30 03:26:35;;;;;;;;;;;;;;;;;;1011492;29;948;-32
2021/12/30 03:27:06;;;;;;;;;;;;;;;;;;1011502;29;998;-32
2021/12/30 03:27:36;;;;;;;;;;;;;;;;;;1011776;29;963;-32
2021/12/30 03:28:07;;;;;;;;;;;;;;;;;;1011706;29;896;-32
2021/12/30 03:28:39;;;;;;;;;;;;;;;;;;1011812;29;895;-32
2021/12/30 03:29:09;;;;;;;;;;;;;;;;;;1011630;29;1976;-32
2021/12/30 03:29:39;;;;;;;;;;;;;;;;;;1011963;29;880;-32
2021/12/30 03:30:14;;;;;;;;;;;;;;;;;;1011664;29;1177;-32
2021/12/30 03:30:44;;;;;;;;;;;;;;;;;;1007332;29;1261;-32
2021/12/30 03:31:15;;;;;;;;;;;;;;;;;;1003778;29;948;-32
2021/12/30 03:31:46;;;;;;;;;;;;;;;;;;1003616;29;951;-32
2021/12/30 03:32:16;;;;;;;;;;;;;;;;;;1003957;29;840;-32
2021/12/30 03:32:47;;;;;;;;;;;;;;;;;;1007662;29;951;-32
2021/12/30 03:33:20;;;;;;;;;;;;;;;;;;1011950;29;524;-32
2021/12/30 03:33:51;;;;;;;;;;;;;;;;;;1011601;29;935;-31
2021/12/30 03:34:21;;;;;;;;;;;;;;;;;;1011863;29;940;-33
2021/12/30 03:34:51;;;;;;;;;;;;;;;;;;1011796;29;947;-32
2021/12/30 03:35:22;;;;;;;;;;;;;;;;;;1011406;29;939;-32
2021/12/30 03:35:52;;;;;;;;;;;;;;;;;;1011313;29;963;-32
2021/12/30 03:36:22;;;;;;;;;;;;;;;;;;1011522;29;947;-32
2021/12/30 03:36:53;;;;;;;;;;;;;;;;;;1011244;29;966;-32
2021/12/30 03:37:23;;;;;;;;;;;;;;;;;;1011415;29;907;-32
2021/12/30 03:37:53;;;;;;;;;;;;;;;;;;1011757;29;868;-31
2021/12/30 03:38:24;;;;;;;;;;;;;;;;;;1011705;29;816;-32
2021/12/30 03:38:56;;;;;;;;;;;;;;;;;;1011689;29;1051;-32
2021/12/30 03:39:26;;;;;;;;;;;;;;;;;;1011743;29;793;-32
2021/12/30 03:39:57;;;;;;;;;;;;;;;;;;1011783;29;931;-32
2021/12/30 03:40:27;;;;;;;;;;;;;;;;;;1011743;29;831;-32
2021/12/30 03:40:58;;;;;;;;;;;;;;;;;;1011609;29;903;-31
2021/12/30 03:41:29;;;;;;;;;;;;;;;;;;1011585;29;996;-32
2021/12/30 03:42:00;;;;;;;;;;;;;;;;;;1011602;29;921;-32